createdAt,value
2017-05-21T00:00:35.549Z,1019.8
2017-05-21T00:01:16.138Z,1019.79
2017-05-21T00:01:56.784Z,1019.76
2017-05-21T00:02:37.368Z,1019.83
2017-05-21T00:03:17.983Z,1019.82
2017-05-21T00:03:58.565Z,1019.81
2017-05-21T00:04:39.197Z,1019.79
2017-05-21T00:05:19.772Z,1019.79
2017-05-21T00:06:00.356Z,1019.79
2017-05-21T00:06:40.949Z,1019.75
2017-05-21T00:07:21.564Z,1019.78
2017-05-21T00:08:02.218Z,1019.78
2017-05-21T00:08:42.807Z,1019.82
2017-05-21T00:09:23.413Z,1019.8
2017-05-21T00:10:04.000Z,1019.84
2017-05-21T00:10:44.618Z,1019.86
2017-05-21T00:11:25.203Z,1019.85
2017-05-21T00:12:05.815Z,1019.86
2017-05-21T00:12:46.420Z,1019.88
2017-05-21T00:13:27.023Z,1019.81
2017-05-21T00:14:07.611Z,1019.81
2017-05-21T00:14:48.203Z,1019.83
2017-05-21T00:15:28.789Z,1019.82
2017-05-21T00:16:09.369Z,1019.83
2017-05-21T00:16:49.940Z,1019.85
2017-05-21T00:17:30.541Z,1019.84
2017-05-21T00:18:11.128Z,1019.82
2017-05-21T00:18:51.727Z,1019.85
2017-05-21T00:19:32.293Z,1019.82
2017-05-21T00:20:12.913Z,1019.82
2017-05-21T00:20:53.489Z,1019.84
2017-05-21T00:21:34.110Z,1019.84
2017-05-21T00:22:14.693Z,1019.81
2017-05-21T00:22:55.282Z,1019.81
2017-05-21T00:23:35.881Z,1019.81
2017-05-21T00:24:16.514Z,1019.84
2017-05-21T00:24:57.101Z,1019.81
2017-05-21T00:25:37.680Z,1019.81
2017-05-21T00:26:18.268Z,1019.8
2017-05-21T00:26:58.852Z,1019.81
2017-05-21T00:27:39.429Z,1019.82
2017-05-21T00:28:20.028Z,1019.83
2017-05-21T00:29:00.629Z,1019.83
2017-05-21T00:29:41.282Z,1019.84
2017-05-21T00:30:21.855Z,1019.82
2017-05-21T00:31:02.431Z,1019.87
2017-05-21T00:31:43.011Z,1019.86
2017-05-21T00:32:23.593Z,1019.84
2017-05-21T00:33:04.234Z,1019.82
2017-05-21T00:33:44.801Z,1019.82
2017-05-21T00:34:25.390Z,1019.8
2017-05-21T00:35:05.963Z,1019.78
2017-05-21T00:35:46.553Z,1019.73
2017-05-21T00:36:27.128Z,1019.79
2017-05-21T00:37:07.719Z,1019.77
2017-05-21T00:37:48.316Z,1019.76
2017-05-21T00:38:28.922Z,1019.77
2017-05-21T00:39:09.491Z,1019.82
2017-05-21T00:39:50.097Z,1019.81
2017-05-21T00:40:30.687Z,1019.82
2017-05-21T00:41:11.290Z,1019.81
2017-05-21T00:41:51.856Z,1019.84
2017-05-21T00:42:32.425Z,1019.83
2017-05-21T00:43:13.041Z,1019.87
2017-05-21T00:43:53.657Z,1019.88
2017-05-21T00:44:34.244Z,1019.86
2017-05-21T00:45:14.830Z,1019.86
2017-05-21T00:45:55.392Z,1019.84
2017-05-21T00:46:35.988Z,1019.86
2017-05-21T00:47:16.578Z,1019.89
2017-05-21T00:47:57.163Z,1019.87
2017-05-21T00:48:37.780Z,1019.93
2017-05-21T00:49:18.349Z,1019.9
2017-05-21T00:49:59.863Z,1019.9
2017-05-21T00:50:40.429Z,1019.92
2017-05-21T00:51:21.036Z,1019.88
2017-05-21T00:52:01.614Z,1019.85
2017-05-21T00:52:42.223Z,1019.87
2017-05-21T00:53:22.817Z,1019.88
2017-05-21T00:54:03.432Z,1019.82
2017-05-21T00:54:44.041Z,1019.88
2017-05-21T00:55:24.607Z,1019.9
2017-05-21T00:56:05.197Z,1019.88
2017-05-21T00:56:45.789Z,1019.89
2017-05-21T00:57:26.378Z,1019.87
2017-05-21T00:58:06.977Z,1019.91
2017-05-21T00:58:47.611Z,1019.91
2017-05-21T00:59:28.186Z,1019.9
2017-05-21T01:00:08.781Z,1019.92
2017-05-21T01:00:49.362Z,1019.89
2017-05-21T01:01:29.927Z,1019.89
2017-05-21T01:02:10.508Z,1019.92
2017-05-21T01:02:51.107Z,1019.92
2017-05-21T01:03:31.736Z,1019.94
2017-05-21T01:04:12.356Z,1019.91
2017-05-21T01:04:52.960Z,1019.92
2017-05-21T01:05:33.543Z,1019.93
2017-05-21T01:06:14.137Z,1019.94
2017-05-21T01:06:54.726Z,1019.95
2017-05-21T01:07:35.311Z,1020
2017-05-21T01:08:15.906Z,1019.95
2017-05-21T01:08:56.471Z,1019.96
2017-05-21T01:09:37.049Z,1019.99
2017-05-21T01:10:17.637Z,1019.98
2017-05-21T01:10:58.212Z,1019.99
2017-05-21T01:11:38.801Z,1020.02
2017-05-21T01:12:19.395Z,1020
2017-05-21T01:13:00.008Z,1020.04
2017-05-21T01:13:40.598Z,1020.03
2017-05-21T01:14:21.198Z,1020.01
2017-05-21T01:15:01.776Z,1020.03
2017-05-21T01:15:42.349Z,1020.04
2017-05-21T01:16:22.917Z,1019.98
2017-05-21T01:17:03.503Z,1020.01
2017-05-21T01:17:44.121Z,1020.03
2017-05-21T01:18:24.703Z,1020.02
2017-05-21T01:19:05.281Z,1020
2017-05-21T01:19:45.903Z,1020.04
2017-05-21T01:20:26.533Z,1020.03
2017-05-21T01:21:07.120Z,1020.04
2017-05-21T01:21:47.695Z,1020.05
2017-05-21T01:22:28.297Z,1020.02
2017-05-21T01:23:08.915Z,1020.03
2017-05-21T01:23:49.549Z,1020.03
2017-05-21T01:24:30.143Z,1020.06
2017-05-21T01:25:10.711Z,1020.05
2017-05-21T01:25:51.303Z,1020.08
2017-05-21T01:26:31.935Z,1020.08
2017-05-21T01:27:12.505Z,1020.1
2017-05-21T01:27:53.138Z,1020.11
2017-05-21T01:28:33.727Z,1020.09
2017-05-21T01:29:14.304Z,1020.08
2017-05-21T01:29:54.881Z,1020.11
2017-05-21T01:30:35.514Z,1020.07
2017-05-21T01:31:16.082Z,1020.11
2017-05-21T01:31:56.696Z,1020.03
2017-05-21T01:32:37.299Z,1020.05
2017-05-21T01:33:17.893Z,1020.06
2017-05-21T01:33:58.460Z,1020.07
2017-05-21T01:34:39.047Z,1020.05
2017-05-21T01:35:19.619Z,1020.08
2017-05-21T01:36:00.234Z,1020.09
2017-05-21T01:36:40.839Z,1020.08
2017-05-21T01:37:21.456Z,1020.06
2017-05-21T01:38:02.073Z,1020.05
2017-05-21T01:38:42.685Z,1020.03
2017-05-21T01:39:23.262Z,1020.05
2017-05-21T01:40:03.838Z,1020.01
2017-05-21T01:40:44.422Z,1020.08
2017-05-21T01:41:25.014Z,1020.07
2017-05-21T01:42:05.664Z,1020.07
2017-05-21T01:42:46.246Z,1020.08
2017-05-21T01:43:26.906Z,1020.08
2017-05-21T01:44:07.491Z,1020.08
2017-05-21T01:44:48.134Z,1020.07
2017-05-21T01:45:28.668Z,1020.06
2017-05-21T01:46:09.256Z,1020.08
2017-05-21T01:46:49.864Z,1020.07
2017-05-21T01:47:30.482Z,1020.06
2017-05-21T01:48:11.062Z,1020.08
2017-05-21T01:48:51.741Z,1020.09
2017-05-21T01:49:32.353Z,1020.06
2017-05-21T01:50:12.943Z,1020.04
2017-05-21T01:50:53.557Z,1020.06
2017-05-21T01:51:34.132Z,1020.03
2017-05-21T01:52:14.710Z,1020.05
2017-05-21T01:52:55.276Z,1019.98
2017-05-21T01:53:35.908Z,1020.04
2017-05-21T01:54:16.566Z,1020.07
2017-05-21T01:54:57.161Z,1020.02
2017-05-21T01:55:37.750Z,1020.09
2017-05-21T01:56:18.325Z,1020.1
2017-05-21T01:56:58.937Z,1020.06
2017-05-21T01:57:39.572Z,1020.09
2017-05-21T01:58:20.142Z,1020.11
2017-05-21T01:59:00.738Z,1020.08
2017-05-21T01:59:41.325Z,1020.1
2017-05-21T02:00:21.943Z,1020.09
2017-05-21T02:01:02.531Z,1020.08
2017-05-21T02:01:43.102Z,1020.09
2017-05-21T02:02:23.682Z,1020.1
2017-05-21T02:03:04.254Z,1020.06
2017-05-21T02:03:44.831Z,1020.06
2017-05-21T02:04:25.404Z,1020.11
2017-05-21T02:05:06.014Z,1020.08
2017-05-21T02:05:46.586Z,1020.14
2017-05-21T02:06:27.172Z,1020.11
2017-05-21T02:07:07.747Z,1020.17
2017-05-21T02:07:48.338Z,1020.1
2017-05-21T02:08:28.919Z,1020.08
2017-05-21T02:09:09.494Z,1020.08
2017-05-21T02:09:50.061Z,1020.06
2017-05-21T02:10:30.629Z,1020.07
2017-05-21T02:11:11.202Z,1020.05
2017-05-21T02:11:51.785Z,1020.1
2017-05-21T02:12:32.364Z,1020.04
2017-05-21T02:13:12.953Z,1020.04
2017-05-21T02:13:53.529Z,1020.06
2017-05-21T02:14:34.119Z,1020.05
2017-05-21T02:15:14.703Z,1020.05
2017-05-21T02:15:55.284Z,1020.08
2017-05-21T02:16:35.867Z,1020.1
2017-05-21T02:17:16.441Z,1020.08
2017-05-21T02:17:57.027Z,1020.07
2017-05-21T02:18:37.606Z,1020
2017-05-21T02:19:18.228Z,1020.07
2017-05-21T02:19:59.043Z,1020.07
2017-05-21T02:20:39.627Z,1020.06
2017-05-21T02:21:20.204Z,1020.09
2017-05-21T02:22:00.798Z,1020.08
2017-05-21T02:22:41.387Z,1020.06
2017-05-21T02:23:21.979Z,1020.05
2017-05-21T02:24:02.546Z,1020.06
2017-05-21T02:24:43.146Z,1020.06
2017-05-21T02:25:23.776Z,1020.05
2017-05-21T02:26:04.347Z,1020.07
2017-05-21T02:26:44.932Z,1020.03
2017-05-21T02:27:25.507Z,1020
2017-05-21T02:28:06.101Z,1020.04
2017-05-21T02:28:46.671Z,1020.01
2017-05-21T02:29:27.252Z,1020.03
2017-05-21T02:30:07.832Z,1020.05
2017-05-21T02:30:48.445Z,1020.05
2017-05-21T02:31:29.013Z,1020.05
2017-05-21T02:32:09.603Z,1020.03
2017-05-21T02:32:50.191Z,1020.03
2017-05-21T02:33:30.778Z,1020.02
2017-05-21T02:34:11.354Z,1019.98
2017-05-21T02:34:51.912Z,1020
2017-05-21T02:35:32.495Z,1020.01
2017-05-21T02:36:13.086Z,1019.99
2017-05-21T02:36:53.669Z,1020.01
2017-05-21T02:37:34.252Z,1020.05
2017-05-21T02:38:14.842Z,1020
2017-05-21T02:38:55.418Z,1020.04
2017-05-21T02:39:35.988Z,1020.09
2017-05-21T02:40:16.634Z,1020.09
2017-05-21T02:40:57.236Z,1020.09
2017-05-21T02:41:37.816Z,1020.05
2017-05-21T02:42:18.386Z,1020.05
2017-05-21T02:42:58.961Z,1020.06
2017-05-21T02:43:39.539Z,1020.03
2017-05-21T02:44:20.109Z,1020.04
2017-05-21T02:45:00.685Z,1020.08
2017-05-21T02:45:41.257Z,1020.07
2017-05-21T02:46:21.842Z,1020.11
2017-05-21T02:47:02.467Z,1020.1
2017-05-21T02:47:43.067Z,1020.11
2017-05-21T02:48:23.643Z,1020.15
2017-05-21T02:49:04.224Z,1020.15
2017-05-21T02:49:44.812Z,1020.13
2017-05-21T02:50:25.385Z,1020.13
2017-05-21T02:51:05.965Z,1020.2
2017-05-21T02:51:46.618Z,1020.2
2017-05-21T02:52:27.195Z,1020.19
2017-05-21T02:53:07.764Z,1020.18
2017-05-21T02:53:48.359Z,1020.16
2017-05-21T02:54:28.944Z,1020.18
2017-05-21T02:55:09.545Z,1020.22
2017-05-21T02:55:50.103Z,1020.19
2017-05-21T02:56:30.670Z,1020.19
2017-05-21T02:57:11.313Z,1020.19
2017-05-21T02:57:51.950Z,1020.19
2017-05-21T02:58:32.529Z,1020.23
2017-05-21T02:59:13.099Z,1020.2
2017-05-21T02:59:53.692Z,1020.21
2017-05-21T03:00:34.288Z,1020.2
2017-05-21T03:01:14.865Z,1020.24
2017-05-21T03:01:55.445Z,1020.23
2017-05-21T03:02:36.033Z,1020.23
2017-05-21T03:03:16.660Z,1020.24
2017-05-21T03:03:57.239Z,1020.24
2017-05-21T03:04:37.820Z,1020.24
2017-05-21T03:05:18.430Z,1020.25
2017-05-21T03:05:59.021Z,1020.25
2017-05-21T03:06:39.586Z,1020.28
2017-05-21T03:07:20.203Z,1020.3
2017-05-21T03:08:00.814Z,1020.3
2017-05-21T03:08:41.427Z,1020.27
2017-05-21T03:09:22.051Z,1020.32
2017-05-21T03:10:02.620Z,1020.35
2017-05-21T03:10:43.238Z,1020.35
2017-05-21T03:11:23.825Z,1020.34
2017-05-21T03:12:04.393Z,1020.32
2017-05-21T03:12:44.962Z,1020.31
2017-05-21T03:13:25.543Z,1020.35
2017-05-21T03:14:06.131Z,1020.36
2017-05-21T03:14:46.727Z,1020.39
2017-05-21T03:15:27.302Z,1020.37
2017-05-21T03:16:07.887Z,1020.38
2017-05-21T03:16:48.462Z,1020.39
2017-05-21T03:17:29.093Z,1020.4
2017-05-21T03:18:09.682Z,1020.38
2017-05-21T03:18:50.389Z,1020.36
2017-05-21T03:19:30.987Z,1020.35
2017-05-21T03:20:11.573Z,1020.4
2017-05-21T03:20:52.151Z,1020.39
2017-05-21T03:21:32.747Z,1020.41
2017-05-21T03:22:13.343Z,1020.42
2017-05-21T03:22:53.920Z,1020.38
2017-05-21T03:23:34.495Z,1020.4
2017-05-21T03:24:15.072Z,1020.42
2017-05-21T03:24:55.649Z,1020.36
2017-05-21T03:25:36.249Z,1020.42
2017-05-21T03:26:16.852Z,1020.38
2017-05-21T03:26:57.441Z,1020.36
2017-05-21T03:27:38.022Z,1020.38
2017-05-21T03:28:18.619Z,1020.39
2017-05-21T03:28:59.207Z,1020.38
2017-05-21T03:29:39.810Z,1020.38
2017-05-21T03:30:20.398Z,1020.43
2017-05-21T03:31:00.982Z,1020.4
2017-05-21T03:31:41.571Z,1020.46
2017-05-21T03:32:22.168Z,1020.45
2017-05-21T03:33:02.747Z,1020.48
2017-05-21T03:33:43.334Z,1020.43
2017-05-21T03:34:23.908Z,1020.41
2017-05-21T03:35:04.482Z,1020.41
2017-05-21T03:35:45.075Z,1020.4
2017-05-21T03:36:25.657Z,1020.37
2017-05-21T03:37:06.254Z,1020.38
2017-05-21T03:37:46.824Z,1020.41
2017-05-21T03:38:27.394Z,1020.38
2017-05-21T03:39:08.008Z,1020.38
2017-05-21T03:39:48.605Z,1020.39
2017-05-21T03:40:29.196Z,1020.38
2017-05-21T03:41:09.798Z,1020.41
2017-05-21T03:41:50.370Z,1020.4
2017-05-21T03:42:30.955Z,1020.4
2017-05-21T03:43:11.530Z,1020.36
2017-05-21T03:43:52.128Z,1020.36
2017-05-21T03:44:32.759Z,1020.38
2017-05-21T03:45:13.314Z,1020.38
2017-05-21T03:45:53.903Z,1020.41
2017-05-21T03:46:34.489Z,1020.44
2017-05-21T03:47:15.088Z,1020.48
2017-05-21T03:47:55.668Z,1020.47
2017-05-21T03:48:36.267Z,1020.46
2017-05-21T03:49:16.829Z,1020.45
2017-05-21T03:49:57.418Z,1020.41
2017-05-21T03:50:38.009Z,1020.45
2017-05-21T03:51:18.609Z,1020.45
2017-05-21T03:51:59.213Z,1020.44
2017-05-21T03:52:39.812Z,1020.38
2017-05-21T03:53:20.384Z,1020.4
2017-05-21T03:54:00.965Z,1020.42
2017-05-21T03:54:41.563Z,1020.41
2017-05-21T03:55:22.161Z,1020.4
2017-05-21T03:56:02.747Z,1020.41
2017-05-21T03:56:43.356Z,1020.43
2017-05-21T03:57:23.951Z,1020.41
2017-05-21T03:58:04.525Z,1020.43
2017-05-21T03:58:45.137Z,1020.47
2017-05-21T03:59:25.713Z,1020.41
2017-05-21T04:00:06.290Z,1020.44
2017-05-21T04:00:46.885Z,1020.45
2017-05-21T04:01:27.444Z,1020.46
2017-05-21T04:02:08.034Z,1020.47
2017-05-21T04:02:48.634Z,1020.48
2017-05-21T04:03:29.233Z,1020.46
2017-05-21T04:04:09.850Z,1020.45
2017-05-21T04:04:50.442Z,1020.46
2017-05-21T04:05:31.038Z,1020.5
2017-05-21T04:06:11.614Z,1020.51
2017-05-21T04:06:52.191Z,1020.53
2017-05-21T04:07:32.785Z,1020.52
2017-05-21T04:08:13.375Z,1020.53
2017-05-21T04:08:53.964Z,1020.53
2017-05-21T04:09:34.545Z,1020.54
2017-05-21T04:10:15.125Z,1020.52
2017-05-21T04:10:55.708Z,1020.55
2017-05-21T04:11:36.289Z,1020.56
2017-05-21T04:12:16.874Z,1020.55
2017-05-21T04:12:57.469Z,1020.62
2017-05-21T04:13:38.048Z,1020.63
2017-05-21T04:14:18.630Z,1020.62
2017-05-21T04:14:59.234Z,1020.65
2017-05-21T04:15:39.837Z,1020.6
2017-05-21T04:16:20.424Z,1020.59
2017-05-21T04:17:01.024Z,1020.68
2017-05-21T04:17:41.628Z,1020.65
2017-05-21T04:18:22.222Z,1020.69
2017-05-21T04:19:02.800Z,1020.69
2017-05-21T04:19:43.380Z,1020.69
2017-05-21T04:20:23.996Z,1020.71
2017-05-21T04:21:04.570Z,1020.69
2017-05-21T04:21:45.153Z,1020.67
2017-05-21T04:22:25.755Z,1020.7
2017-05-21T04:23:06.338Z,1020.65
2017-05-21T04:23:46.916Z,1020.65
2017-05-21T04:24:27.494Z,1020.66
2017-05-21T04:25:08.112Z,1020.66
2017-05-21T04:25:48.685Z,1020.68
2017-05-21T04:26:29.288Z,1020.66
2017-05-21T04:27:09.903Z,1020.66
2017-05-21T04:27:50.502Z,1020.66
2017-05-21T04:28:31.086Z,1020.69
2017-05-21T04:29:11.664Z,1020.72
2017-05-21T04:29:52.279Z,1020.71
2017-05-21T04:30:32.842Z,1020.72
2017-05-21T04:31:13.418Z,1020.69
2017-05-21T04:31:54.002Z,1020.73
2017-05-21T04:32:34.595Z,1020.72
2017-05-21T04:33:15.207Z,1020.69
2017-05-21T04:33:55.790Z,1020.75
2017-05-21T04:34:36.372Z,1020.72
2017-05-21T04:35:16.948Z,1020.71
2017-05-21T04:35:57.523Z,1020.76
2017-05-21T04:36:38.128Z,1020.79
2017-05-21T04:37:18.714Z,1020.73
2017-05-21T04:37:59.305Z,1020.81
2017-05-21T04:38:39.895Z,1020.8
2017-05-21T04:39:20.506Z,1020.81
2017-05-21T04:40:01.082Z,1020.79
2017-05-21T04:40:41.679Z,1020.81
2017-05-21T04:41:22.251Z,1020.83
2017-05-21T04:42:02.826Z,1020.85
2017-05-21T04:42:43.409Z,1020.89
2017-05-21T04:43:23.996Z,1020.88
2017-05-21T04:44:04.603Z,1020.94
2017-05-21T04:44:45.174Z,1020.91
2017-05-21T04:45:25.759Z,1020.9
2017-05-21T04:46:06.383Z,1020.92
2017-05-21T04:46:46.978Z,1020.91
2017-05-21T04:47:27.569Z,1020.91
2017-05-21T04:48:08.205Z,1020.91
2017-05-21T04:48:48.791Z,1020.91
2017-05-21T04:49:29.414Z,1020.87
2017-05-21T04:50:10.007Z,1020.88
2017-05-21T04:50:50.617Z,1020.88
2017-05-21T04:51:31.204Z,1020.92
2017-05-21T04:52:11.786Z,1020.91
2017-05-21T04:52:52.370Z,1020.92
2017-05-21T04:53:32.959Z,1020.96
2017-05-21T04:54:13.567Z,1020.96
2017-05-21T04:54:54.180Z,1020.97
2017-05-21T04:55:34.768Z,1020.93
2017-05-21T04:56:15.352Z,1020.96
2017-05-21T04:56:55.937Z,1020.93
2017-05-21T04:57:36.532Z,1020.99
2017-05-21T04:58:17.137Z,1020.98
2017-05-21T04:58:57.723Z,1020.97
2017-05-21T04:59:38.318Z,1020.96
2017-05-21T05:00:18.920Z,1020.99
2017-05-21T05:00:59.516Z,1020.98
2017-05-21T05:01:40.108Z,1020.96
2017-05-21T05:02:20.699Z,1021
2017-05-21T05:03:01.298Z,1021.01
2017-05-21T05:03:41.894Z,1021
2017-05-21T05:04:22.473Z,1021.02
2017-05-21T05:05:03.070Z,1021.01
2017-05-21T05:05:43.652Z,1021.04
2017-05-21T05:06:24.264Z,1021.05
2017-05-21T05:07:04.848Z,1021.06
2017-05-21T05:07:45.440Z,1021.06
2017-05-21T05:08:26.025Z,1021.04
2017-05-21T05:09:06.636Z,1021.06
2017-05-21T05:09:47.221Z,1021.04
2017-05-21T05:10:27.803Z,1021.05
2017-05-21T05:11:08.375Z,1021.05
2017-05-21T05:11:48.960Z,1021.07
2017-05-21T05:12:29.538Z,1021.13
2017-05-21T05:13:10.162Z,1021.11
2017-05-21T05:13:50.759Z,1021.11
2017-05-21T05:14:31.344Z,1021.1
2017-05-21T05:15:11.925Z,1021.14
2017-05-21T05:15:52.510Z,1021.12
2017-05-21T05:16:33.096Z,1021.12
2017-05-21T05:17:13.690Z,1021.14
2017-05-21T05:17:54.324Z,1021.15
2017-05-21T05:18:34.914Z,1021.16
2017-05-21T05:19:15.535Z,1021.17
2017-05-21T05:19:56.126Z,1021.17
2017-05-21T05:20:36.707Z,1021.14
2017-05-21T05:21:17.306Z,1021.11
2017-05-21T05:21:57.885Z,1021.12
2017-05-21T05:22:38.468Z,1021.16
2017-05-21T05:23:19.058Z,1021.13
2017-05-21T05:23:59.637Z,1021.16
2017-05-21T05:24:40.217Z,1021.16
2017-05-21T05:25:20.791Z,1021.17
2017-05-21T05:26:01.410Z,1021.19
2017-05-21T05:26:42.016Z,1021.19
2017-05-21T05:27:22.647Z,1021.21
2017-05-21T05:28:03.244Z,1021.23
2017-05-21T05:28:43.848Z,1021.24
2017-05-21T05:29:24.393Z,1021.34
2017-05-21T05:30:04.994Z,1021.36
2017-05-21T05:30:45.601Z,1021.35
2017-05-21T05:31:26.174Z,1021.41
2017-05-21T05:32:06.750Z,1021.41
2017-05-21T05:32:47.344Z,1021.47
2017-05-21T05:33:27.958Z,1021.54
2017-05-21T05:34:08.537Z,1021.52
2017-05-21T05:34:49.126Z,1021.57
2017-05-21T05:35:29.703Z,1021.56
2017-05-21T05:36:10.304Z,1021.55
2017-05-21T05:36:50.908Z,1021.6
2017-05-21T05:37:31.484Z,1021.66
2017-05-21T05:38:12.067Z,1021.64
2017-05-21T05:38:52.669Z,1021.64
2017-05-21T05:39:33.250Z,1021.66
2017-05-21T05:40:13.857Z,1021.69
2017-05-21T05:40:54.437Z,1021.77
2017-05-21T05:41:35.040Z,1021.8
2017-05-21T05:42:15.623Z,1021.82
2017-05-21T05:42:56.216Z,1021.86
2017-05-21T05:43:36.843Z,1021.9
2017-05-21T05:44:17.407Z,1021.9
2017-05-21T05:44:58.002Z,1021.92
2017-05-21T05:45:38.594Z,1021.92
2017-05-21T05:46:19.191Z,1021.96
2017-05-21T05:46:59.780Z,1022
2017-05-21T05:47:40.372Z,1022.04
2017-05-21T05:48:20.978Z,1022.05
2017-05-21T05:49:01.569Z,1022.08
2017-05-21T05:49:42.143Z,1022.1
2017-05-21T05:50:22.729Z,1022.15
2017-05-21T05:51:03.325Z,1022.19
2017-05-21T05:51:44.186Z,1022.21
2017-05-21T05:52:25.689Z,1022.28
2017-05-21T05:53:06.339Z,1022.39
2017-05-21T05:53:46.928Z,1022.4
2017-05-21T05:54:27.511Z,1022.52
2017-05-21T05:55:08.174Z,1022.63
2017-05-21T05:55:48.716Z,1022.71
2017-05-21T05:56:29.299Z,1022.77
2017-05-21T05:57:10.432Z,1022.78
2017-05-21T05:57:51.094Z,1022.85
2017-05-21T05:58:31.977Z,1022.95
2017-05-21T05:59:12.594Z,1022.96
2017-05-21T05:59:53.196Z,1022.95
2017-05-21T06:00:33.791Z,1022.95
2017-05-21T06:01:14.413Z,1022.96
2017-05-21T06:01:55.000Z,1023
2017-05-21T06:02:36.272Z,1023
2017-05-21T06:03:16.874Z,1023.01
2017-05-21T06:03:57.472Z,1022.97
2017-05-21T06:04:38.088Z,1022.95
2017-05-21T06:05:18.994Z,1023.03
2017-05-21T06:05:59.603Z,1023.07
2017-05-21T06:06:40.195Z,1022.99
2017-05-21T06:07:21.313Z,1022.92
2017-05-21T06:08:01.907Z,1022.75
2017-05-21T06:08:42.508Z,1022.77
2017-05-21T06:09:23.106Z,1022.72
2017-05-21T06:10:03.704Z,1022.73
2017-05-21T06:10:44.705Z,1022.65
2017-05-21T06:11:25.591Z,1022.64
2017-05-21T06:12:06.180Z,1022.6
2017-05-21T06:12:46.966Z,1022.63
2017-05-21T06:13:27.553Z,1022.55
2017-05-21T06:14:08.185Z,1022.45
2017-05-21T06:14:48.790Z,1022.35
2017-05-21T06:15:29.408Z,1022.27
2017-05-21T06:16:10.037Z,1022.27
2017-05-21T06:16:50.638Z,1022.23
2017-05-21T06:17:31.863Z,1022.35
2017-05-21T06:18:13.433Z,1022.71
2017-05-21T06:18:54.024Z,1023.13
2017-05-21T06:19:34.615Z,1023.36
2017-05-21T06:20:15.220Z,1023.35
2017-05-21T06:20:55.855Z,1023.25
2017-05-21T06:21:36.450Z,1023.13
2017-05-21T06:22:17.047Z,1023.13
2017-05-21T06:22:57.661Z,1023.14
2017-05-21T06:23:38.274Z,1023.1
2017-05-21T06:24:18.865Z,1023.09
2017-05-21T06:24:59.473Z,1022.97
2017-05-21T06:25:40.061Z,1023
2017-05-21T06:26:20.658Z,1023.15
2017-05-21T06:27:01.267Z,1023.14
2017-05-21T06:27:41.885Z,1023.23
2017-05-21T06:28:22.480Z,1023.25
2017-05-21T06:29:03.156Z,1023.3
2017-05-21T06:29:44.269Z,1023.31
2017-05-21T06:30:24.795Z,1023.35
2017-05-21T06:31:05.446Z,1023.27
2017-05-21T06:31:46.078Z,1023.27
2017-05-21T06:32:26.689Z,1023.37
2017-05-21T06:33:07.480Z,1023.18
2017-05-21T06:33:48.138Z,1022.86
2017-05-21T06:34:28.822Z,1022.44
2017-05-21T06:35:09.399Z,1022.25
2017-05-21T06:35:50.041Z,1022.18
2017-05-21T06:36:30.736Z,1022.15
2017-05-21T06:37:11.384Z,1022.12
2017-05-21T06:37:51.982Z,1022.14
2017-05-21T06:38:32.578Z,1022.1
2017-05-21T06:39:13.162Z,1022.09
2017-05-21T06:39:53.866Z,1022.13
2017-05-21T06:40:34.401Z,1022.13
2017-05-21T06:41:15.021Z,1022.16
2017-05-21T06:41:55.633Z,1022.08
2017-05-21T06:42:36.239Z,1022.09
2017-05-21T06:43:16.889Z,1022.11
2017-05-21T06:43:57.497Z,1022.15
2017-05-21T06:44:38.204Z,1022.21
2017-05-21T06:45:18.801Z,1022.29
2017-05-21T06:45:59.433Z,1022.4
2017-05-21T06:46:40.033Z,1022.42
2017-05-21T06:47:20.677Z,1022.38
2017-05-21T06:48:01.286Z,1022.28
2017-05-21T06:48:41.897Z,1022.25
2017-05-21T06:49:22.483Z,1022.14
2017-05-21T06:50:03.134Z,1022.12
2017-05-21T06:50:43.716Z,1022.13
2017-05-21T06:51:24.359Z,1022.15
2017-05-21T06:52:04.961Z,1022.11
2017-05-21T06:52:45.617Z,1022.12
2017-05-21T06:53:26.241Z,1022.1
2017-05-21T06:54:06.886Z,1022.09
2017-05-21T06:54:47.423Z,1022.09
2017-05-21T06:55:28.049Z,1022.1
2017-05-21T06:56:08.721Z,1022.14
2017-05-21T06:56:49.329Z,1022.14
2017-05-21T06:57:29.942Z,1022.13
2017-05-21T06:58:10.543Z,1022.12
2017-05-21T06:58:51.149Z,1022.16
2017-05-21T06:59:31.775Z,1022.13
2017-05-21T07:00:12.459Z,1022.16
2017-05-21T07:00:53.080Z,1022.11
2017-05-21T07:01:33.800Z,1022.12
2017-05-21T07:02:14.436Z,1022.15
2017-05-21T07:02:55.056Z,1022.17
2017-05-21T07:03:35.673Z,1022.17
2017-05-21T07:04:16.275Z,1022.21
2017-05-21T07:04:56.879Z,1022.17
2017-05-21T07:05:37.501Z,1022.13
2017-05-21T07:06:18.647Z,1022.15
2017-05-21T07:06:59.272Z,1022.22
2017-05-21T07:07:40.269Z,1022.25
2017-05-21T07:08:21.482Z,1022.25
2017-05-21T07:09:02.521Z,1022.22
2017-05-21T07:09:43.950Z,1022.25
2017-05-21T07:10:24.950Z,1022.24
2017-05-21T07:11:05.614Z,1022.25
2017-05-21T07:11:46.251Z,1022.21
2017-05-21T07:12:26.866Z,1022.23
2017-05-21T07:13:07.532Z,1022.26
2017-05-21T07:13:48.185Z,1022.3
2017-05-21T07:14:30.318Z,1022.25
2017-05-21T07:15:13.832Z,1022.29
2017-05-21T07:15:57.867Z,1022.3
2017-05-21T07:16:41.898Z,1022.31
2017-05-21T07:17:23.753Z,1022.28
2017-05-21T07:18:05.016Z,1022.34
2017-05-21T07:18:49.280Z,1022.38
2017-05-21T07:19:31.885Z,1022.38
2017-05-21T07:20:17.556Z,1022.43
2017-05-21T07:20:58.155Z,1022.45
2017-05-21T07:21:39.310Z,1022.46
2017-05-21T07:22:23.008Z,1022.48
2017-05-21T07:23:03.619Z,1022.48
2017-05-21T07:23:45.050Z,1022.5
2017-05-21T07:24:33.918Z,1022.48
2017-05-21T07:25:24.084Z,1022.52
2017-05-21T07:26:10.646Z,1022.5
2017-05-21T07:26:54.993Z,1022.49
2017-05-21T07:27:36.029Z,1022.46
2017-05-21T07:28:16.663Z,1022.44
2017-05-21T07:28:57.260Z,1022.44
2017-05-21T07:29:37.854Z,1022.41
2017-05-21T07:30:18.473Z,1022.43
2017-05-21T07:30:59.084Z,1022.45
2017-05-21T07:31:39.685Z,1022.41
2017-05-21T07:32:20.275Z,1022.44
2017-05-21T07:33:00.880Z,1022.38
2017-05-21T07:33:41.482Z,1022.44
2017-05-21T07:34:22.093Z,1022.39
2017-05-21T07:35:02.682Z,1022.39
2017-05-21T07:35:43.309Z,1022.36
2017-05-21T07:36:23.912Z,1022.4
2017-05-21T07:37:04.517Z,1022.41
2017-05-21T07:37:45.140Z,1022.36
2017-05-21T07:38:25.752Z,1022.33
2017-05-21T07:39:06.363Z,1022.37
2017-05-21T07:39:46.978Z,1022.33
2017-05-21T07:40:27.571Z,1022.34
2017-05-21T07:41:08.175Z,1022.3
2017-05-21T07:41:48.771Z,1022.26
2017-05-21T07:42:29.358Z,1022.29
2017-05-21T07:43:09.980Z,1022.32
2017-05-21T07:43:50.626Z,1022.3
2017-05-21T07:44:31.226Z,1022.27
2017-05-21T07:45:11.825Z,1022.29
2017-05-21T07:45:52.429Z,1022.27
2017-05-21T07:46:33.022Z,1022.27
2017-05-21T07:47:13.637Z,1022.25
2017-05-21T07:47:54.230Z,1022.24
2017-05-21T07:48:34.840Z,1022.3
2017-05-21T07:49:15.468Z,1022.27
2017-05-21T07:49:56.039Z,1022.34
2017-05-21T07:50:36.641Z,1022.32
2017-05-21T07:51:17.244Z,1022.31
2017-05-21T07:51:57.864Z,1022.3
2017-05-21T07:52:38.463Z,1022.31
2017-05-21T07:53:19.092Z,1022.27
2017-05-21T07:53:59.727Z,1022.27
2017-05-21T07:54:40.323Z,1022.31
2017-05-21T07:55:20.939Z,1022.28
2017-05-21T07:56:01.554Z,1022.29
2017-05-21T07:56:42.168Z,1022.3
2017-05-21T07:57:22.776Z,1022.23
2017-05-21T07:58:04.618Z,1022.3
2017-05-21T07:58:47.068Z,1022.25
2017-05-21T07:59:28.066Z,1022.27
2017-05-21T08:00:10.933Z,1022.28
2017-05-21T08:00:52.825Z,1022.3
2017-05-21T08:01:35.988Z,1022.32
2017-05-21T08:02:16.580Z,1022.29
2017-05-21T08:02:57.188Z,1022.26
2017-05-21T08:03:40.828Z,1022.31
2017-05-21T08:04:27.805Z,1022.28
2017-05-21T08:05:15.273Z,1022.28
2017-05-21T08:05:55.861Z,1022.34
2017-05-21T08:06:38.956Z,1022.25
2017-05-21T08:07:27.289Z,1022.24
2017-05-21T08:08:09.001Z,1022.27
2017-05-21T08:08:49.599Z,1022.28
2017-05-21T08:09:30.216Z,1022.26
2017-05-21T08:10:10.827Z,1022.22
2017-05-21T08:10:51.438Z,1022.22
2017-05-21T08:11:35.918Z,1022.15
2017-05-21T08:12:18.898Z,1022.2
2017-05-21T08:13:01.953Z,1022.2
2017-05-21T08:13:45.342Z,1022.25
2017-05-21T08:14:27.806Z,1022.21
2017-05-21T08:15:08.409Z,1022.21